Time;durP1;ratioP1;P1;durP2;ratioP2;P2;SDS_P1;SDS_P2;PMS_P1;PMS_P2;Temp;Humidity;BMP_temperature;BMP_pressure;BME280_temperature;BME280_humidity;BME280_pressure;Samples;Min_cycle;Max_cycle;Signal;HPM_P1;HPM_P2
2021/12/11 00:00:40;;;;;;;;;;;21.20;50.10;;;;;;5091834;28;20039;-74
2021/12/11 00:03:15;;;;;;;;;;;21.20;50.00;;;;;;5100347;28;19982;-74
2021/12/11 00:05:47;;;;;;;8.93;5.28;;;21.20;49.90;;;;;;5101031;28;19920;-74
2021/12/11 00:08:17;;;;;;;9.43;5.22;;;21.20;50.10;;;;;;5108617;28;20071;-74
2021/12/11 00:10:54;;;;;;;9.52;5.25;;;21.10;50.00;;;;;;5092623;28;20039;-69
2021/12/11 00:13:27;;;;;;;9.73;5.15;;;21.10;50.60;;;;;;5107311;28;20128;-72
2021/12/11 00:15:53;;;;;;;8.93;4.88;;;21.20;49.90;;;;;;5106529;28;20039;-73
2021/12/11 00:18:24;;;;;;;9.05;4.75;;;21.10;49.90;;;;;;5109229;28;20112;-74
2021/12/11 00:20:55;;;;;;;13.60;5.18;;;21.10;49.80;;;;;;5108109;28;20481;-70
2021/12/11 00:23:59;;;;;;;8.40;5.03;;;21.10;49.80;;;;;;5105855;28;20046;-70
2021/12/11 00:26:33;;;;;;;9.82;4.68;;;21.10;49.60;;;;;;5107184;28;20694;-74
2021/12/11 00:28:59;;;;;;;8.07;4.80;;;21.10;49.60;;;;;;5088820;28;20063;-73
2021/12/11 00:31:27;;;;;;;9.27;4.80;;;21.10;49.70;;;;;;5109199;28;20534;-73
2021/12/11 00:33:54;;;;;;;6.35;4.80;;;21.10;49.60;;;;;;5098112;28;20543;-74
2021/12/11 00:36:23;;;;;;;8.13;4.63;;;21.10;49.50;;;;;;5105419;28;20047;-74
2021/12/11 00:38:52;;;;;;;8.73;4.88;;;21.10;49.50;;;;;;5107176;28;20043;-74
2021/12/11 00:41:20;;;;;;;6.93;4.28;;;21.10;49.50;;;;;;5105928;28;20039;-70
2021/12/11 00:43:47;;;;;;;7.82;4.50;;;21.10;49.40;;;;;;5086574;28;20088;-73
2021/12/11 00:46:22;;;;;;;7.10;4.45;;;21.10;49.40;;;;;;5106489;28;20046;-73
2021/12/11 00:48:48;;;;;;;8.63;4.82;;;21.00;49.20;;;;;;5098706;28;20047;-74
2021/12/11 00:51:17;;;;;;;5.93;4.20;;;21.00;49.30;;;;;;5107438;28;20031;-73
2021/12/11 00:53:51;;;;;;;9.10;4.53;;;21.00;49.20;;;;;;5115880;27;20036;-74
2021/12/11 00:56:25;;;;;;;7.40;4.13;;;21.00;49.20;;;;;;5107262;28;20593;-72
2021/12/11 00:58:53;;;;;;;8.90;4.40;;;21.00;49.10;;;;;;5127755;27;20551;-74
2021/12/11 01:01:25;;;;;;;7.13;4.50;;;21.00;49.20;;;;;;5108755;27;20165;-75
2021/12/11 01:03:56;;;;;;;6.75;4.00;;;21.00;49.10;;;;;;5126401;27;20083;-75
2021/12/11 01:06:35;;;;;;;7.25;4.28;;;21.00;49.00;;;;;;5104843;28;20056;-75
2021/12/11 01:09:12;;;;;;;6.60;4.15;;;21.00;49.00;;;;;;5100398;28;20552;-76
2021/12/11 01:11:42;;;;;;;7.40;4.50;;;21.00;49.00;;;;;;5103450;28;20506;-76
2021/12/11 01:14:29;;;;;;;8.45;4.35;;;21.00;49.00;;;;;;5103271;28;20413;-75
2021/12/11 01:17:06;;;;;;;7.03;4.13;;;21.00;49.00;;;;;;5102773;28;20032;-76
2021/12/11 01:19:37;;;;;;;6.72;4.05;;;21.00;48.90;;;;;;5098706;28;20047;-76
2021/12/11 01:22:11;;;;;;;6.15;4.00;;;21.00;48.90;;;;;;5104442;28;20032;-77
2021/12/11 01:24:44;;;;;;;6.57;3.90;;;21.00;48.80;;;;;;5091802;28;20042;-75
2021/12/11 01:27:20;;;;;;;5.97;4.10;;;21.00;48.90;;;;;;5105371;28;20104;-73
2021/12/11 01:29:48;;;;;;;5.60;3.78;;;21.00;48.70;;;;;;5107483;28;20052;-76
2021/12/11 01:32:15;;;;;;;7.28;3.78;;;21.00;48.80;;;;;;5088715;28;20380;-74
2021/12/11 01:34:42;;;;;;;5.65;3.70;;;21.00;48.70;;;;;;5109146;28;20040;-75
2021/12/11 01:37:08;;;;;;;4.88;4.10;;;21.00;48.70;;;;;;5102768;28;20052;-76
2021/12/11 01:39:38;;;;;;;6.07;3.85;;;20.90;48.60;;;;;;5099149;28;20069;-76
2021/12/11 01:42:11;;;;;;;7.22;4.07;;;20.90;48.60;;;;;;5088184;28;20035;-76
2021/12/11 01:44:38;;;;;;;6.25;3.80;;;20.90;48.50;;;;;;5099419;28;20044;-76
2021/12/11 01:47:11;;;;;;;5.93;4.00;;;21.00;48.60;;;;;;5099380;28;20050;-75
2021/12/11 01:49:42;;;;;;;5.07;3.50;;;20.90;48.50;;;;;;5095062;28;20059;-75
2021/12/11 01:52:26;;;;;;;7.03;3.88;;;20.90;48.50;;;;;;5099532;28;20105;-76
2021/12/11 01:54:55;;;;;;;5.20;3.63;;;20.90;48.40;;;;;;5099996;28;20038;-76
2021/12/11 01:57:24;;;;;;;5.82;3.70;;;20.90;48.40;;;;;;5106220;28;20184;-75
2021/12/11 01:59:56;;;;;;;6.90;3.83;;;20.90;48.30;;;;;;5102125;28;20043;-76
2021/12/11 02:02:30;;;;;;;5.38;3.47;;;20.90;48.30;;;;;;5107697;28;20043;-76
2021/12/11 02:04:56;;;;;;;6.30;3.72;;;20.90;48.30;;;;;;5093155;28;20134;-75
2021/12/11 02:07:28;;;;;;;6.80;3.55;;;20.90;48.30;;;;;;5138900;27;20131;-75
2021/12/11 02:09:58;;;;;;;4.22;3.15;;;20.90;48.30;;;;;;5090083;28;20051;-76
2021/12/11 02:12:34;;;;;;;6.97;3.60;;;20.90;48.30;;;;;;5098520;28;20047;-73
2021/12/11 02:15:03;;;;;;;5.47;3.88;;;20.90;48.20;;;;;;5095342;28;20093;-74
2021/12/11 02:17:31;;;;;;;;;;;20.90;48.20;;;;;;5100020;28;20039;-75
2021/12/11 02:19:59;;;;;;;5.65;3.42;;;20.90;48.10;;;;;;5137839;27;19959;-72
2021/12/11 02:22:37;;;;;;;5.40;3.42;;;20.90;48.20;;;;;;5104719;28;20542;-72
2021/12/11 02:25:10;;;;;;;5.80;3.38;;;20.90;48.20;;;;;;5103871;28;20084;-74
2021/12/11 02:27:43;;;;;;;4.65;3.25;;;20.90;48.20;;;;;;5102040;28;20044;-73
2021/12/11 02:30:20;;;;;;;5.40;3.55;;;20.90;48.90;;;;;;5102371;28;20095;-73
2021/12/11 02:32:57;;;;;;;5.15;3.28;;;20.80;48.00;;;;;;5088332;28;20071;-73
2021/12/11 02:35:43;;;;;;;4.60;3.15;;;20.80;48.00;;;;;;5100574;28;20553;-72
2021/12/11 02:38:21;;;;;;;4.80;3.10;;;20.90;48.00;;;;;;5102953;28;20035;-74
2021/12/11 02:40:59;;;;;;;5.43;3.42;;;20.80;48.80;;;;;;5104125;28;20040;-74
2021/12/11 02:43:30;;;;;;;4.13;3.20;;;20.90;48.20;;;;;;5105946;28;20067;-75
2021/12/11 02:46:07;;;;;;;4.20;3.38;;;20.80;48.00;;;;;;5135130;27;20036;-74
2021/12/11 02:48:58;;;;;;;3.65;3.13;;;20.90;48.00;;;;;;5089645;28;20048;-75
2021/12/11 02:51:30;;;;;;;4.10;3.20;;;20.90;47.90;;;;;;5068616;28;20526;-74
2021/12/11 02:54:05;;;;;;;4.28;3.10;;;20.80;47.80;;;;;;5140183;27;20143;-75
2021/12/11 02:56:35;;;;;;;5.30;3.20;;;20.80;47.80;;;;;;5102784;28;20558;-75
2021/12/11 02:59:07;;;;;;;3.88;2.83;;;20.80;47.80;;;;;;5106174;28;20080;-74
2021/12/11 03:01:40;;;;;;;3.83;3.25;;;20.80;47.80;;;;;;5089684;28;20617;-73
2021/12/11 03:04:19;;;;;;;3.60;2.97;;;20.80;47.80;;;;;;5100366;28;20442;-74
2021/12/11 03:06:47;;;;;;;5.32;3.40;;;20.80;47.80;;;;;;5105098;28;20050;-73
2021/12/11 03:09:15;;;;;;;;;;;20.80;47.80;;;;;;5106796;28;20047;-75
2021/12/11 03:11:40;;;;;;;4.32;2.92;;;20.80;47.70;;;;;;5100149;28;19930;-74
2021/12/11 03:14:12;;;;;;;3.88;3.05;;;20.80;47.80;;;;;;5104573;28;20040;-71
2021/12/11 03:16:39;;;;;;;4.78;3.15;;;20.80;47.70;;;;;;5090220;28;20049;-75
2021/12/11 03:19:08;;;;;;;4.63;3.10;;;20.80;47.70;;;;;;5105858;28;20032;-74
2021/12/11 03:21:37;;;;;;;4.63;3.05;;;20.80;47.70;;;;;;5129892;27;20051;-74
2021/12/11 03:24:04;;;;;;;3.58;2.83;;;20.80;47.70;;;;;;5104576;28;20058;-73
2021/12/11 03:26:30;;;;;;;5.22;3.17;;;20.80;47.80;;;;;;5088445;28;20036;-73
2021/12/11 03:28:56;;;;;;;4.38;2.80;;;20.80;47.80;;;;;;5103782;28;20081;-75
2021/12/11 03:31:22;;;;;;;4.30;2.92;;;20.80;47.70;;;;;;5096810;28;20050;-75
2021/12/11 03:33:51;;;;;;;4.00;3.30;;;20.80;47.70;;;;;;5103557;28;20051;-73
2021/12/11 03:36:20;;;;;;;5.03;3.20;;;20.80;47.70;;;;;;5102908;28;20054;-74
2021/12/11 03:38:52;;;;;;;5.45;2.78;;;20.80;47.60;;;;;;5103319;28;20043;-71
2021/12/11 03:41:20;;;;;;;4.05;3.05;;;20.80;47.60;;;;;;5093260;28;20070;-70
2021/12/11 03:43:46;;;;;;;5.30;3.17;;;20.80;47.60;;;;;;5104104;28;20055;-75
2021/12/11 03:46:13;;;;;;;3.85;3.00;;;20.80;47.50;;;;;;5100553;28;20514;-74
2021/12/11 03:48:47;;;;;;;5.10;2.88;;;20.80;47.50;;;;;;5089793;28;20048;-75
2021/12/11 03:51:16;;;;;;;3.85;3.08;;;20.80;47.40;;;;;;5101154;28;20499;-73
2021/12/11 03:53:42;;;;;;;5.25;3.05;;;20.70;47.40;;;;;;5098624;28;20044;-75
2021/12/11 03:56:13;;;;;;;3.88;2.88;;;20.80;47.40;;;;;;5100730;28;20043;-75
2021/12/11 03:58:40;;;;;;;4.07;2.83;;;20.80;47.30;;;;;;5102679;28;20040;-75
2021/12/11 04:01:08;;;;;;;3.60;2.95;;;20.80;47.40;;;;;;5092110;28;20046;-75
2021/12/11 04:03:38;;;;;;;3.92;2.90;;;20.80;47.30;;;;;;5101272;28;20211;-74
2021/12/11 04:06:08;;;;;;;4.53;2.72;;;20.80;47.30;;;;;;5093687;28;20040;-75
2021/12/11 04:08:40;;;;;;;3.88;2.90;;;20.70;47.30;;;;;;5085982;28;20097;-73
2021/12/11 04:11:09;;;;;;;3.67;2.80;;;20.80;47.40;;;;;;5091505;28;20051;-71
2021/12/11 04:13:34;;;;;;;;;;;20.80;47.40;;;;;;5101914;28;20051;-75
2021/12/11 04:16:00;;;;;;;4.10;2.75;;;20.70;47.40;;;;;;5106007;28;19923;-75
2021/12/11 04:18:26;;;;;;;4.55;2.83;;;20.70;47.40;;;;;;5104086;28;20874;-68
2021/12/11 04:20:52;;;;;;;4.78;3.20;;;20.70;47.30;;;;;;5090993;28;20150;-74
2021/12/11 04:23:20;;;;;;;4.03;3.03;;;20.80;47.30;;;;;;5104498;28;20116;-73
2021/12/11 04:25:48;;;;;;;3.88;2.78;;;20.70;47.30;;;;;;5097805;28;20122;-74
2021/12/11 04:28:17;;;;;;;;;;;20.70;47.30;;;;;;5100893;28;20601;-71
2021/12/11 04:30:43;;;;;;;3.63;2.90;;;20.70;47.20;;;;;;5103846;28;19943;-75
2021/12/11 04:33:09;;;;;;;3.67;2.60;;;20.80;47.30;;;;;;5100423;28;20040;-73
2021/12/11 04:35:35;;;;;;;3.30;2.60;;;20.70;47.20;;;;;;5097276;28;20080;-71
2021/12/11 04:38:05;;;;;;;4.78;2.92;;;20.70;47.30;;;;;;5107044;28;20540;-74
2021/12/11 04:40:36;;;;;;;3.80;2.60;;;20.70;47.20;;;;;;5108290;28;20039;-74
2021/12/11 04:43:07;;;;;;;4.20;3.08;;;20.70;47.10;;;;;;5098050;28;20191;-74
2021/12/11 04:46:01;;;;;;;4.47;2.80;;;20.70;47.10;;;;;;5078669;28;20051;-75
2021/12/11 05:04:48;;;;;;;3.13;2.63;;;20.70;47.10;;;;;;5120058;27;20093;-73
2021/12/11 05:09:54;;;;;;;2.95;2.50;;;20.70;47.00;;;;;;5106124;28;20055;-74
2021/12/11 05:12:40;;;;;;;3.13;2.63;;;20.70;47.00;;;;;;5097033;28;20443;-75
2021/12/11 05:15:14;;;;;;;5.75;2.72;;;20.70;47.00;;;;;;5107764;27;20151;-76
2021/12/11 05:17:41;;;;;;;3.13;2.60;;;20.70;47.00;;;;;;5104299;28;20046;-75
2021/12/11 05:20:09;;;;;;;3.50;2.53;;;20.70;47.00;;;;;;5107592;28;20069;-74
2021/12/11 05:22:35;;;;;;;3.47;2.50;;;20.70;47.00;;;;;;5098674;28;20043;-74
2021/12/11 05:25:00;;;;;;;4.03;2.80;;;20.70;47.00;;;;;;5102587;28;20606;-76
2021/12/11 05:27:26;;;;;;;4.35;2.65;;;20.70;47.00;;;;;;5086221;28;20063;-75
2021/12/11 05:29:53;;;;;;;3.38;2.58;;;20.70;46.90;;;;;;5102067;28;20520;-75
2021/12/11 05:32:23;;;;;;;3.55;2.40;;;20.70;46.90;;;;;;5094291;28;20614;-76
2021/12/11 05:34:49;;;;;;;4.22;2.58;;;20.70;46.90;;;;;;5107848;28;20076;-74
2021/12/11 05:37:15;;;;;;;3.85;2.58;;;20.70;46.90;;;;;;5104141;28;20046;-75
2021/12/11 05:39:41;;;;;;;3.70;2.65;;;20.70;46.90;;;;;;5106342;28;20043;-74
2021/12/11 05:42:07;;;;;;;2.55;2.28;;;20.70;46.80;;;;;;5100367;28;20127;-74
2021/12/11 05:44:33;;;;;;;3.83;2.53;;;20.70;46.80;;;;;;5122288;27;20111;-75
2021/12/11 05:47:02;;;;;;;3.10;2.63;;;20.70;46.80;;;;;;5104239;28;20038;-75
2021/12/11 05:49:29;;;;;;;4.57;2.92;;;20.70;46.80;;;;;;5107629;28;20032;-75
2021/12/11 05:51:55;;;;;;;3.13;2.33;;;20.70;46.80;;;;;;5098639;28;20036;-75
2021/12/11 05:54:23;;;;;;;2.70;2.35;;;20.70;46.70;;;;;;5104939;28;20040;-71
2021/12/11 05:56:51;;;;;;;;;;;20.70;46.80;;;;;;5102982;28;20397;-74
2021/12/11 05:59:17;;;;;;;3.72;2.60;;;20.70;46.70;;;;;;5107816;28;19966;-74
2021/12/11 06:01:49;;;;;;;3.50;2.58;;;20.70;46.80;;;;;;5093868;28;20047;-74
2021/12/11 06:04:18;;;;;;;3.03;2.40;;;20.70;46.70;;;;;;5107769;28;20054;-75
2021/12/11 06:06:45;;;;;;;3.75;2.40;;;20.60;46.70;;;;;;5099314;28;20050;-75
2021/12/11 06:09:15;;;;;;;3.25;2.50;;;20.70;46.70;;;;;;5096633;28;20059;-75
2021/12/11 06:11:44;;;;;;;2.75;2.20;;;20.70;46.70;;;;;;5079756;28;20053;-75
2021/12/11 06:14:10;;;;;;;3.35;2.40;;;20.70;46.70;;;;;;5099226;28;20084;-74
2021/12/11 06:16:36;;;;;;;2.92;2.40;;;20.70;46.70;;;;;;5088359;28;20040;-74
2021/12/11 06:19:05;;;;;;;2.97;2.47;;;20.70;46.70;;;;;;5095736;28;20380;-74
2021/12/11 06:21:35;;;;;;;2.90;2.30;;;20.60;46.70;;;;;;5082355;28;20047;-73
2021/12/11 06:24:03;;;;;;;3.80;2.47;;;20.60;46.70;;;;;;5103558;28;20043;-75
2021/12/11 06:26:29;;;;;;;2.83;2.17;;;20.60;46.60;;;;;;5087612;28;20044;-75
2021/12/11 06:28:55;;;;;;;3.15;2.45;;;20.70;46.70;;;;;;5097481;28;20048;-72
2021/12/11 06:31:21;;;;;;;3.58;2.38;;;20.60;46.60;;;;;;5104434;28;20051;-75
2021/12/11 06:33:48;;;;;;;3.72;2.38;;;20.70;46.70;;;;;;5074942;28;20051;-73
2021/12/11 06:36:15;;;;;;;2.93;2.17;;;20.70;46.60;;;;;;5102125;28;20101;-74
2021/12/11 06:38:44;;;;;;;3.33;2.35;;;20.60;46.50;;;;;;5097009;28;20301;-74
2021/12/11 06:41:12;;;;;;;2.90;2.50;;;20.60;46.50;;;;;;5105411;28;20036;-73
2021/12/11 06:43:38;;;;;;;3.10;2.42;;;20.60;46.50;;;;;;5094482;28;20124;-72
2021/12/11 06:46:04;;;;;;;4.18;2.42;;;20.60;47.30;;;;;;5102617;28;20116;-73
2021/12/11 06:48:30;;;;;;;3.78;2.25;;;20.70;46.60;;;;;;5096666;28;20048;-70
2021/12/11 06:50:57;;;;;;;3.13;2.35;;;20.60;46.50;;;;;;5094990;28;20044;-73
2021/12/11 06:53:33;;;;;;;3.08;2.30;;;20.60;46.60;;;;;;5110071;27;20253;-72
2021/12/11 06:55:59;;;;;;;3.22;2.53;;;20.70;46.60;;;;;;5102493;27;20051;-71
2021/12/11 06:58:26;;;;;;;3.45;2.33;;;20.70;46.60;;;;;;5104805;27;20127;-71
2021/12/11 07:00:53;;;;;;;2.42;2.17;;;20.70;46.60;;;;;;5104926;28;20043;-72
2021/12/11 07:03:19;;;;;;;2.72;2.28;;;20.70;46.50;;;;;;5095344;28;20407;-69
2021/12/11 07:05:44;;;;;;;3.47;2.20;;;20.70;46.60;;;;;;5129760;27;20044;-72
2021/12/11 07:08:12;;;;;;;3.00;2.30;;;20.70;46.60;;;;;;5139637;27;20051;-73
2021/12/11 07:10:39;;;;;;;3.03;2.38;;;20.70;46.50;;;;;;5105599;28;20109;-73
2021/12/11 07:13:06;;;;;;;3.70;2.25;;;20.80;46.60;;;;;;5128117;27;20514;-74
2021/12/11 07:15:35;;;;;;;2.40;2.08;;;20.70;46.50;;;;;;5102982;28;20131;-73
2021/12/11 07:18:01;;;;;;;2.75;2.28;;;20.70;46.60;;;;;;5103900;28;20043;-74
2021/12/11 07:20:27;;;;;;;3.17;2.40;;;20.70;46.50;;;;;;5103382;28;20048;-75
2021/12/11 07:22:54;;;;;;;3.20;2.38;;;20.70;46.50;;;;;;5103760;28;20039;-73
2021/12/11 07:25:42;;;;;;;3.65;2.10;;;20.80;46.50;;;;;;5104954;28;20043;-73
2021/12/11 07:28:11;;;;;;;2.40;1.80;;;20.80;46.40;;;;;;5103736;28;20042;-74
2021/12/11 07:30:39;;;;;;;3.53;2.15;;;20.90;46.30;;;;;;5096556;28;20044;-71
2021/12/11 07:33:05;;;;;;;;;;;20.90;46.30;;;;;;5105353;28;20036;-74
2021/12/11 07:35:33;;;;;;;3.63;2.45;;;20.90;46.20;;;;;;5091521;28;19969;-74
2021/12/11 07:37:59;;;;;;;5.47;2.30;;;20.90;46.20;;;;;;5102215;28;20048;-74
2021/12/11 07:40:29;;;;;;;3.95;2.50;;;20.90;46.20;;;;;;5105777;28;20044;-73
2021/12/11 07:42:54;;;;;;;5.43;2.50;;;20.90;46.20;;;;;;5105969;28;20146;-71
2021/12/11 07:45:21;;;;;;;5.28;2.55;;;21.00;46.20;;;;;;5103507;28;20713;-70
2021/12/11 07:47:47;;;;;;;4.40;2.47;;;21.00;46.10;;;;;;5091523;28;20523;-70
2021/12/11 07:50:13;;;;;;;6.10;2.58;;;21.00;46.10;;;;;;5098627;28;20048;-75
2021/12/11 07:52:40;;;;;;;3.42;2.40;;;21.00;46.00;;;;;;5102282;28;20126;-75
2021/12/11 07:55:06;;;;;;;5.32;2.40;;;21.00;46.00;;;;;;5099987;28;20043;-71
2021/12/11 07:57:32;;;;;;;3.78;2.33;;;21.00;46.00;;;;;;5101748;28;20097;-69
2021/12/11 07:59:57;;;;;;;6.35;2.45;;;21.00;46.10;;;;;;5104492;28;20047;-73
2021/12/11 08:02:23;;;;;;;4.88;2.50;;;21.10;46.30;;;;;;5100992;28;20044;-70
2021/12/11 08:04:49;;;;;;;6.50;2.60;;;21.10;46.20;;;;;;5106737;28;20046;-71
2021/12/11 08:07:15;;;;;;;3.97;2.60;;;21.10;46.20;;;;;;5085601;28;20055;-71
2021/12/11 08:09:40;;;;;;;7.15;2.70;;;21.30;46.10;;;;;;5103212;28;20032;-72
2021/12/11 08:12:10;;;;;;;4.65;2.70;;;21.60;45.70;;;;;;5102849;28;20036;-73
2021/12/11 08:14:35;;;;;;;3.03;2.40;;;21.80;45.30;;;;;;5132246;27;20047;-74
2021/12/11 08:17:05;;;;;;;5.53;2.78;;;22.00;45.00;;;;;;5104991;28;20075;-70
2021/12/11 08:19:32;;;;;;;3.40;2.30;;;21.90;44.90;;;;;;5107195;28;20043;-72
2021/12/11 08:22:03;;;;;;;3.70;2.60;;;21.80;45.10;;;;;;5103765;28;20050;-71
2021/12/11 08:24:30;;;;;;;5.70;2.60;;;21.70;45.30;;;;;;5102929;28;20122;-69
2021/12/11 08:27:09;;;;;;;10.25;2.33;;;21.70;45.50;;;;;;5099230;28;20047;-72
2021/12/11 08:29:35;;;;;;;2.83;2.17;;;21.60;45.60;;;;;;5102846;27;20067;-71
2021/12/11 08:32:01;;;;;;;3.42;2.47;;;21.60;45.60;;;;;;5103997;28;20043;-73
2021/12/11 08:34:28;;;;;;;2.97;2.45;;;21.60;45.60;;;;;;5129693;27;20139;-76
2021/12/11 08:36:54;;;;;;;4.63;2.80;;;21.80;45.50;;;;;;5101971;28;20052;-73
2021/12/11 08:39:21;;;;;;;3.53;2.65;;;22.00;45.40;;;;;;5100442;28;20086;-72
2021/12/11 08:41:50;;;;;;;3.10;2.40;;;22.20;45.10;;;;;;5103546;28;20059;-74
2021/12/11 08:44:17;;;;;;;7.53;2.47;;;22.10;45.10;;;;;;5104085;28;20530;-74
2021/12/11 08:46:49;;;;;;;2.80;2.20;;;22.00;45.20;;;;;;5103718;28;20043;-73
2021/12/11 08:49:21;;;;;;;6.60;2.25;;;22.00;45.30;;;;;;5104360;28;20555;-74
2021/12/11 08:51:53;;;;;;;4.30;2.83;;;21.90;45.50;;;;;;5094821;27;20403;-74
2021/12/11 08:54:21;;;;;;;5.95;2.75;;;21.90;45.70;;;;;;5100432;28;20499;-73
2021/12/11 08:56:47;;;;;;;3.72;2.38;;;21.80;45.80;;;;;;5104573;28;20051;-73
2021/12/11 08:59:16;;;;;;;4.90;2.47;;;21.80;46.00;;;;;;5102227;28;20040;-72
2021/12/11 09:01:49;;;;;;;2.65;2.20;;;21.80;46.10;;;;;;5082409;28;20169;-72
2021/12/11 09:04:27;;;;;;;5.32;2.60;;;21.80;46.20;;;;;;5105217;28;20544;-75
2021/12/11 09:06:58;;;;;;;4.45;2.60;;;21.70;46.30;;;;;;5084717;28;20044;-72
2021/12/11 09:09:42;;;;;;;3.28;2.30;;;21.70;46.40;;;;;;5102216;28;20104;-71
2021/12/11 09:12:17;;;;;;;3.65;2.40;;;21.70;46.60;;;;;;5102786;28;20127;-70
2021/12/11 09:14:54;;;;;;;5.40;2.40;;;21.70;46.60;;;;;;5104227;27;20047;-71
2021/12/11 09:17:25;;;;;;;4.50;2.28;;;21.70;46.70;;;;;;5103836;28;20507;-73
2021/12/11 09:20:00;;;;;;;3.22;2.42;;;21.70;46.60;;;;;;5128209;27;20498;-70
2021/12/11 09:22:34;;;;;;;2.97;2.40;;;21.70;46.60;;;;;;5098194;28;20043;-69
2021/12/11 09:25:17;;;;;;;3.95;2.30;;;21.70;46.70;;;;;;5102494;28;20055;-71
2021/12/11 09:27:55;;;;;;;3.22;2.08;;;21.70;46.80;;;;;;5101013;27;20498;-71
2021/12/11 09:30:33;;;;;;;4.10;2.50;;;21.70;46.80;;;;;;5101281;28;20059;-74
2021/12/11 09:33:09;;;;;;;2.45;2.08;;;21.70;46.90;;;;;;5101247;28;20085;-72
2021/12/11 09:35:42;;;;;;;5.78;2.50;;;21.70;46.90;;;;;;5122241;27;20044;-74
2021/12/11 09:38:19;;;;;;;4.30;2.53;;;21.70;47.00;;;;;;5099178;28;20039;-70
2021/12/11 09:40:44;;;;;;;4.53;2.35;;;21.70;47.10;;;;;;5105318;28;20048;-71
2021/12/11 09:43:29;;;;;;;4.38;2.30;;;21.70;47.00;;;;;;5097309;28;20078;-71
2021/12/11 09:45:54;;;;;;;3.75;2.30;;;21.70;47.10;;;;;;5102725;28;20871;-73
2021/12/11 09:48:20;;;;;;;6.65;2.55;;;21.70;47.00;;;;;;5128109;27;20119;-73
2021/12/11 09:51:00;;;;;;;3.83;2.35;;;21.70;47.00;;;;;;5101778;28;20111;-74
2021/12/11 09:53:30;;;;;;;4.65;2.65;;;21.70;47.00;;;;;;5096205;28;20032;-73
2021/12/11 09:55:57;;;;;;;4.75;2.50;;;21.70;46.90;;;;;;5091863;28;20039;-73
2021/12/11 09:58:28;;;;;;;3.72;2.38;;;21.70;47.00;;;;;;5094780;28;20032;-75
2021/12/11 10:00:59;;;;;;;4.13;2.60;;;21.70;47.00;;;;;;5123576;27;20091;-74
2021/12/11 10:03:29;;;;;;;3.95;2.67;;;21.70;46.90;;;;;;5096915;28;20181;-69
2021/12/11 10:06:39;;;;;;;3.42;2.33;;;21.70;47.00;;;;;;5094681;28;20036;-72
2021/12/11 10:09:18;;;;;;;3.72;2.50;;;21.60;47.00;;;;;;5098039;28;20083;-73
2021/12/11 10:11:48;;;;;;;5.00;2.45;;;21.60;46.90;;;;;;5097847;28;20039;-70
2021/12/11 10:14:20;;;;;;;5.80;2.65;;;21.60;46.90;;;;;;5099046;28;20048;-71
2021/12/11 10:16:49;;;;;;;3.35;2.33;;;21.60;46.80;;;;;;5095305;28;20527;-73
2021/12/11 10:19:19;;;;;;;7.15;2.17;;;21.60;46.80;;;;;;5102159;27;20043;-73
2021/12/11 10:22:06;;;;;;;3.47;2.35;;;21.60;46.80;;;;;;5103085;28;20047;-71
2021/12/11 10:24:34;;;;;;;5.32;2.63;;;21.60;46.90;;;;;;5099522;28;20118;-70
2021/12/11 10:27:03;;;;;;;4.78;2.40;;;21.60;46.90;;;;;;5100157;28;20040;-75
2021/12/11 10:29:29;;;;;;;3.90;2.60;;;21.60;46.80;;;;;;5102541;28;20051;-68
2021/12/11 10:31:58;;;;;;;5.90;2.40;;;21.60;46.60;;;;;;5129294;27;20051;-70
2021/12/11 10:34:28;;;;;;;3.63;2.40;;;21.60;46.50;;;;;;5102628;28;20590;-73
2021/12/11 10:37:04;;;;;;;5.05;2.55;;;21.50;46.60;;;;;;5101953;28;20693;-70
2021/12/11 10:39:30;;;;;;;4.47;2.45;;;21.60;46.70;;;;;;5109211;27;20476;-71
2021/12/11 10:41:58;;;;;;;3.70;2.40;;;21.50;46.60;;;;;;5103335;28;20059;-70
2021/12/11 10:44:32;;;;;;;5.60;2.50;;;21.50;46.60;;;;;;5103018;28;20606;-71
2021/12/11 10:47:06;;;;;;;4.65;2.40;;;21.50;46.60;;;;;;5084543;28;20383;-72
2021/12/11 10:49:33;;;;;;;5.13;2.40;;;21.50;46.70;;;;;;5109522;27;20082;-69
2021/12/11 10:52:12;;;;;;;4.18;2.50;;;21.50;46.80;;;;;;5084912;28;20031;-67
2021/12/11 10:54:38;;;;;;;3.63;2.75;;;21.50;47.10;;;;;;5104097;28;20574;-72
2021/12/11 10:57:04;;;;;;;7.43;2.95;;;21.50;47.10;;;;;;5102911;28;20188;-68
2021/12/11 10:59:33;;;;;;;4.97;2.42;;;21.50;47.20;;;;;;5107789;27;20027;-70
2021/12/11 11:02:11;;;;;;;4.57;2.65;;;21.50;47.30;;;;;;5103361;28;20043;-68
2021/12/11 11:04:42;;;;;;;5.38;2.67;;;21.50;47.40;;;;;;5081615;27;20040;-70
2021/12/11 11:07:08;;;;;;;5.82;2.50;;;21.50;47.40;;;;;;5081922;28;20036;-69
2021/12/11 11:09:35;;;;;;;5.38;2.65;;;21.60;47.50;;;;;;5101010;27;20101;-69
2021/12/11 11:12:05;;;;;;;4.70;2.50;;;21.50;47.50;;;;;;5098392;28;20107;-67
2021/12/11 11:14:32;;;;;;;4.82;2.75;;;21.50;47.40;;;;;;5092650;28;20517;-69
2021/12/11 11:17:03;;;;;;;7.30;2.60;;;21.50;47.40;;;;;;5100720;27;20040;-69
2021/12/11 11:19:30;;;;;;;3.83;2.40;;;21.50;47.40;;;;;;5101520;27;20071;-68
2021/12/11 11:22:05;;;;;;;5.97;2.70;;;21.50;47.40;;;;;;5100315;28;20073;-69
2021/12/11 11:24:39;;;;;;;5.03;2.38;;;21.50;47.40;;;;;;5102761;28;20082;-69
2021/12/11 11:27:06;;;;;;;6.80;2.83;;;21.50;47.40;;;;;;5086814;28;20047;-69
2021/12/11 11:29:33;;;;;;;4.82;2.65;;;21.50;47.40;;;;;;5093793;28;20052;-68
2021/12/11 11:32:04;;;;;;;4.78;2.40;;;21.50;47.50;;;;;;5104758;28;20051;-67
2021/12/11 11:34:31;;;;;;;6.10;2.70;;;21.50;47.40;;;;;;5101079;28;20046;-70
2021/12/11 11:36:59;;;;;;;5.93;2.30;;;21.60;47.50;;;;;;5104239;28;20358;-71
2021/12/11 11:39:27;;;;;;;3.72;2.50;;;21.60;47.50;;;;;;5103731;28;20122;-73
2021/12/11 11:41:56;;;;;;;6.45;3.88;;;21.60;47.40;;;;;;5099351;28;20040;-72
2021/12/11 11:44:24;;;;;;;5.20;3.38;;;21.60;47.00;;;;;;5122772;27;20514;-73
2021/12/11 11:46:52;;;;;;;6.13;3.47;;;21.50;46.50;;;;;;5104837;28;20043;-70
2021/12/11 11:49:18;;;;;;;6.75;3.10;;;21.50;46.40;;;;;;5111524;27;20035;-71
2021/12/11 11:51:58;;;;;;;6.28;3.00;;;21.50;46.20;;;;;;5107854;28;20050;-72
2021/12/11 11:54:26;;;;;;;4.93;3.10;;;21.50;46.10;;;;;;5099273;28;20055;-71
2021/12/11 11:57:04;;;;;;;5.03;3.13;;;21.50;46.10;;;;;;5108655;28;20071;-69
2021/12/11 11:59:30;;;;;;;6.97;3.08;;;21.50;46.10;;;;;;5108767;28;20075;-71
2021/12/11 12:02:01;;;;;;;5.10;2.83;;;21.50;46.10;;;;;;5108753;28;20132;-71
2021/12/11 12:04:28;;;;;;;7.57;3.17;;;21.50;46.00;;;;;;5104205;28;20032;-71
2021/12/11 12:06:59;;;;;;;7.63;3.20;;;21.50;46.10;;;;;;5102779;28;20395;-72
2021/12/11 12:09:27;;;;;;;7.18;2.72;;;21.50;46.10;;;;;;5107490;28;20039;-72
2021/12/11 12:11:53;;;;;;;5.97;2.85;;;21.50;46.10;;;;;;5109719;28;20118;-72
2021/12/11 12:14:23;;;;;;;6.30;2.45;;;21.40;46.00;;;;;;5117246;27;20051;-72
2021/12/11 12:16:50;;;;;;;3.85;2.42;;;21.40;46.00;;;;;;5112899;27;20078;-70
2021/12/11 12:19:18;;;;;;;5.43;2.63;;;21.40;46.10;;;;;;5125032;27;20054;-72
2021/12/11 12:21:47;;;;;;;4.80;2.53;;;21.40;46.10;;;;;;5140647;27;20051;-71
2021/12/11 12:24:13;;;;;;;5.10;2.72;;;21.40;46.20;;;;;;5109404;27;20298;-72
2021/12/11 12:26:40;;;;;;;6.55;3.25;;;21.40;46.20;;;;;;5087744;28;20043;-72
2021/12/11 12:29:08;;;;;;;5.03;2.50;;;21.40;46.20;;;;;;5087960;28;20173;-72
2021/12/11 12:31:40;;;;;;;4.10;2.40;;;21.40;46.30;;;;;;5087318;28;20145;-71
2021/12/11 12:34:08;;;;;;;3.42;2.50;;;21.40;46.30;;;;;;5091777;28;20051;-70
2021/12/11 12:36:35;;;;;;;5.97;2.75;;;21.40;46.30;;;;;;5108819;28;21159;-72
2021/12/11 12:39:02;;;;;;;9.13;2.80;;;21.30;46.20;;;;;;5108047;28;20038;-72
2021/12/11 12:41:35;;;;;;;4.05;2.42;;;21.40;46.40;;;;;;5109142;28;20039;-72
2021/12/11 12:46:55;;;;;;;9.15;2.75;;;21.30;46.30;;;;;;5087296;28;20044;-71
2021/12/11 12:49:22;;;;;;;4.55;2.70;;;21.30;46.30;;;;;;5103696;28;20040;-72
2021/12/11 12:51:49;;;;;;;3.42;2.10;;;21.30;46.30;;;;;;5088709;28;20530;-72
2021/12/11 12:54:18;;;;;;;3.83;2.20;;;21.30;46.30;;;;;;5094898;28;20040;-71
2021/12/11 12:56:56;;;;;;;5.40;2.40;;;21.30;46.40;;;;;;5107214;27;20058;-71
2021/12/11 12:59:30;;;;;;;3.05;2.20;;;21.20;46.30;;;;;;5088314;28;20059;-71
2021/12/11 13:02:06;;;;;;;4.80;2.40;;;21.20;46.40;;;;;;5097602;28;20134;-70
2021/12/11 13:04:39;;;;;;;4.72;2.33;;;21.20;46.40;;;;;;5106730;27;20051;-70
2021/12/11 13:07:09;;;;;;;4.18;2.30;;;21.20;46.40;;;;;;5107283;28;20390;-68
2021/12/11 13:09:56;;;;;;;3.70;2.40;;;21.20;46.40;;;;;;5106654;28;20411;-69
2021/12/11 13:12:32;;;;;;;6.07;2.40;;;21.20;46.40;;;;;;5107966;28;20475;-69
2021/12/11 13:15:04;;;;;;;5.88;2.53;;;21.20;46.40;;;;;;5106480;28;20063;-69
2021/12/11 13:17:38;;;;;;;4.13;2.50;;;21.20;46.40;;;;;;5106870;28;20057;-69
2021/12/11 13:20:15;;;;;;;3.28;2.10;;;21.20;46.40;;;;;;5107673;28;20058;-68
2021/12/11 13:22:44;;;;;;;3.40;2.20;;;21.20;46.40;;;;;;5106070;28;20058;-69
2021/12/11 13:25:19;;;;;;;3.45;2.28;;;21.20;46.50;;;;;;5103392;28;20290;-71